createdAt,value
2022-08-16T00:02:55.196Z,20.10
2022-08-16T00:05:57.984Z,20.10
2022-08-16T00:09:00.089Z,20.00
2022-08-16T00:12:02.372Z,19.90
2022-08-16T00:15:11.587Z,19.90
2022-08-16T00:18:16.520Z,19.90
2022-08-16T00:21:18.682Z,19.90
2022-08-16T00:24:32.729Z,19.80
2022-08-16T00:27:35.650Z,19.80
2022-08-16T00:30:40.063Z,19.80
2022-08-16T00:33:50.146Z,19.80
2022-08-16T00:36:55.953Z,19.80
2022-08-16T00:39:58.819Z,19.70
2022-08-16T00:43:01.372Z,19.70
2022-08-16T00:46:34.087Z,19.70
2022-08-16T00:49:29.049Z,19.70
2022-08-16T00:52:45.580Z,19.60
2022-08-16T00:55:56.983Z,19.60
2022-08-16T00:59:00.534Z,19.40
2022-08-16T01:02:30.707Z,19.40
2022-08-16T01:05:32.844Z,19.50
2022-08-16T01:08:36.975Z,19.40
2022-08-16T01:11:51.762Z,19.40
2022-08-16T01:15:00.258Z,19.40
2022-08-16T01:18:05.022Z,19.40
2022-08-16T01:21:13.647Z,19.30
2022-08-16T01:24:53.313Z,19.30
2022-08-16T01:27:57.002Z,19.30
2022-08-16T01:30:59.781Z,19.30
2022-08-16T01:34:01.919Z,19.30
2022-08-16T01:37:08.162Z,19.30
2022-08-16T01:40:12.741Z,19.20
2022-08-16T01:43:14.798Z,19.10
2022-08-16T01:46:39.177Z,19.20
2022-08-16T01:50:41.759Z,19.10
2022-08-16T01:53:05.300Z,19.10
2022-08-16T01:56:07.453Z,19.10
2022-08-16T01:59:26.306Z,19.10
2022-08-16T02:02:30.261Z,19.10
2022-08-16T02:05:32.309Z,19.10
2022-08-16T02:08:36.917Z,19.10
2022-08-16T02:11:47.720Z,19.00
2022-08-16T02:14:51.034Z,19.10
2022-08-16T02:17:54.551Z,19.10
2022-08-16T02:20:57.113Z,19.00
2022-08-16T02:23:59.754Z,19.00
2022-08-16T02:27:01.772Z,19.00
2022-08-16T02:30:06.967Z,19.10
2022-08-16T02:33:11.222Z,19.00
2022-08-16T02:36:47.567Z,19.00
2022-08-16T02:39:36.671Z,19.00
2022-08-16T02:42:38.812Z,19.00
2022-08-16T02:45:41.101Z,19.00
2022-08-16T02:48:49.373Z,18.90
2022-08-16T02:51:51.492Z,18.90
2022-08-16T02:54:55.271Z,18.90
2022-08-16T02:57:57.676Z,18.80
2022-08-16T03:01:00.090Z,18.80
2022-08-16T03:04:29.848Z,18.80
2022-08-16T03:07:27.681Z,18.90
2022-08-16T03:10:34.032Z,19.10
2022-08-16T03:13:39.984Z,19.10
2022-08-16T03:16:58.694Z,19.10
2022-08-16T03:20:03.149Z,19.30
2022-08-16T03:23:05.087Z,19.40
2022-08-16T03:26:07.184Z,19.40
2022-08-16T03:29:13.327Z,19.40
2022-08-16T03:32:15.282Z,19.40
2022-08-16T03:35:23.067Z,19.60
2022-08-16T03:38:35.020Z,19.50
2022-08-16T03:41:37.612Z,19.50
2022-08-16T03:44:52.656Z,19.80
2022-08-16T03:48:09.523Z,19.90
2022-08-16T03:51:25.353Z,20.00
2022-08-16T03:54:28.571Z,20.10
2022-08-16T03:57:31.859Z,20.00
2022-08-16T04:00:43.465Z,20.10
2022-08-16T04:03:45.461Z,20.30
2022-08-16T04:06:48.134Z,20.10
2022-08-16T04:09:53.027Z,20.00
2022-08-16T04:12:58.387Z,19.80
2022-08-16T04:16:04.096Z,19.70
2022-08-16T04:19:08.558Z,19.60
2022-08-16T04:22:11.298Z,19.80
2022-08-16T04:25:14.693Z,19.80
2022-08-16T04:28:54.288Z,20.00
2022-08-16T04:31:38.901Z,20.00
2022-08-16T04:34:45.704Z,20.10
2022-08-16T04:37:48.788Z,20.10
2022-08-16T04:40:57.117Z,20.10
2022-08-16T04:44:00.582Z,20.20
2022-08-16T04:47:21.528Z,20.20
2022-08-16T04:50:30.733Z,20.30
2022-08-16T04:53:33.240Z,20.50
2022-08-16T04:56:36.418Z,20.40
2022-08-16T04:59:48.398Z,20.40
2022-08-16T05:02:58.690Z,20.40
2022-08-16T05:06:05.170Z,20.50
2022-08-16T05:09:08.950Z,20.60
2022-08-16T05:12:18.077Z,20.70
2022-08-16T05:15:24.557Z,20.70
2022-08-16T05:18:27.525Z,20.60
2022-08-16T05:21:35.789Z,20.70
2022-08-16T05:24:40.555Z,20.70
2022-08-16T05:27:46.064Z,21.00
2022-08-16T05:30:50.485Z,20.70
2022-08-16T05:33:53.527Z,21.00
2022-08-16T05:36:57.359Z,21.20
2022-08-16T05:40:01.049Z,21.10
2022-08-16T05:43:08.308Z,20.90
2022-08-16T05:46:30.143Z,20.70
2022-08-16T05:49:39.461Z,20.80
2022-08-16T05:52:45.002Z,20.80
2022-08-16T05:55:47.004Z,20.80
2022-08-16T05:58:49.097Z,20.80
2022-08-16T06:01:53.091Z,20.50
2022-08-16T06:04:55.365Z,20.80
2022-08-16T06:07:58.520Z,21.10
2022-08-16T06:11:09.859Z,21.60
2022-08-16T06:14:13.920Z,21.80
2022-08-16T06:17:17.074Z,21.80
2022-08-16T06:20:35.346Z,21.90
2022-08-16T06:23:38.089Z,21.80
2022-08-16T06:26:57.394Z,22.20
2022-08-16T06:30:00.110Z,22.50
2022-08-16T06:33:02.469Z,22.50
2022-08-16T06:36:05.677Z,22.80
2022-08-16T06:39:10.461Z,22.90
2022-08-16T06:42:12.495Z,22.90
2022-08-16T06:45:20.919Z,22.90
2022-08-16T06:48:32.974Z,23.20
2022-08-16T06:51:46.612Z,23.60
2022-08-16T06:54:50.616Z,23.70
2022-08-16T06:57:54.773Z,23.80
2022-08-16T07:00:58.136Z,24.20
2022-08-16T07:04:01.987Z,23.90
2022-08-16T07:07:06.256Z,24.10
2022-08-16T07:10:12.591Z,24.50
2022-08-16T07:13:26.719Z,24.80
2022-08-16T07:16:38.264Z,24.80
2022-08-16T07:20:29.858Z,24.60
2022-08-16T07:23:02.745Z,24.90
2022-08-16T07:26:25.042Z,24.90
2022-08-16T07:29:27.963Z,25.00
2022-08-16T07:32:33.916Z,24.30
2022-08-16T07:35:44.414Z,24.30
2022-08-16T07:38:52.384Z,24.60
2022-08-16T07:41:54.302Z,24.50
2022-08-16T07:44:58.449Z,24.50
2022-08-16T07:48:00.956Z,24.50
2022-08-16T07:51:14.337Z,24.50
2022-08-16T07:54:20.678Z,24.60
2022-08-16T07:57:24.132Z,24.80
2022-08-16T08:00:26.709Z,24.90
2022-08-16T08:03:35.983Z,24.90
2022-08-16T08:06:41.837Z,25.00
2022-08-16T08:09:44.596Z,24.90
2022-08-16T08:12:50.059Z,24.70
2022-08-16T08:15:53.123Z,24.80
2022-08-16T08:19:00.453Z,25.20
2022-08-16T08:22:06.329Z,25.30
2022-08-16T08:25:08.681Z,25.40
2022-08-16T08:28:17.463Z,25.80
2022-08-16T08:31:19.599Z,26.00
2022-08-16T08:34:23.196Z,26.30
2022-08-16T08:37:27.633Z,26.90
2022-08-16T08:40:49.597Z,26.90
2022-08-16T08:43:51.887Z,27.20
2022-08-16T08:47:00.275Z,26.60
2022-08-16T08:50:04.829Z,26.10
2022-08-16T08:53:06.773Z,25.30
2022-08-16T08:56:22.997Z,25.00
2022-08-16T08:59:27.217Z,24.50
2022-08-16T09:02:30.156Z,24.20
2022-08-16T09:05:35.592Z,24.50
2022-08-16T09:08:39.889Z,24.20
2022-08-16T09:12:04.098Z,24.40
2022-08-16T09:15:13.436Z,24.40
2022-08-16T09:18:25.299Z,24.40
2022-08-16T09:21:31.127Z,24.30
2022-08-16T09:24:52.064Z,23.80
2022-08-16T09:27:56.878Z,24.20
2022-08-16T09:31:00.650Z,24.40
2022-08-16T09:34:03.205Z,24.20
2022-08-16T09:37:18.096Z,24.30
2022-08-16T09:40:32.919Z,24.60
2022-08-16T09:43:59.749Z,24.50
2022-08-16T09:47:10.311Z,24.20
2022-08-16T09:50:13.691Z,24.40
2022-08-16T09:53:26.820Z,24.30
2022-08-16T09:56:33.992Z,25.00
2022-08-16T09:59:38.181Z,25.10
2022-08-16T10:02:47.975Z,25.30
2022-08-16T10:05:50.795Z,25.90
2022-08-16T10:09:04.271Z,26.50
2022-08-16T10:12:28.176Z,26.50
2022-08-16T10:15:30.745Z,26.50
2022-08-16T10:19:00.962Z,26.70
2022-08-16T10:21:57.713Z,26.80
2022-08-16T10:25:00.524Z,26.80
2022-08-16T10:28:28.114Z,26.60
2022-08-16T10:31:43.752Z,27.20
2022-08-16T10:34:47.408Z,27.90
2022-08-16T10:37:54.426Z,27.50
2022-08-16T10:40:56.394Z,27.50
2022-08-16T10:43:59.250Z,27.40
2022-08-16T10:47:01.095Z,27.40
2022-08-16T10:50:06.710Z,27.30
2022-08-16T10:53:21.705Z,27.40
2022-08-16T10:56:51.362Z,27.90
2022-08-16T10:59:56.153Z,28.00
2022-08-16T11:03:04.839Z,27.40
2022-08-16T11:06:12.242Z,27.20
2022-08-16T11:09:25.387Z,27.00
2022-08-16T11:12:30.697Z,27.70
2022-08-16T11:15:35.237Z,27.60
2022-08-16T11:19:03.026Z,27.40
2022-08-16T11:22:38.624Z,27.90
2022-08-16T11:32:12.828Z,27.60
2022-08-16T11:38:57.075Z,27.00
2022-08-16T11:41:59.834Z,27.00
2022-08-16T11:45:01.815Z,27.20
2022-08-16T11:48:04.748Z,27.40
2022-08-16T11:51:06.977Z,27.80
2022-08-16T11:54:21.182Z,28.00
2022-08-16T11:57:24.868Z,28.10
2022-08-16T12:00:33.663Z,27.90
2022-08-16T12:03:52.564Z,27.90
2022-08-16T12:06:54.930Z,27.70
2022-08-16T12:09:56.899Z,27.60
2022-08-16T12:12:58.996Z,27.60
2022-08-16T12:16:09.227Z,27.50
2022-08-16T12:19:13.755Z,27.50
2022-08-16T12:22:19.308Z,27.30
2022-08-16T12:25:24.643Z,27.30
2022-08-16T12:28:55.010Z,27.40
2022-08-16T12:32:01.068Z,27.50
2022-08-16T12:35:19.292Z,27.70
2022-08-16T12:38:38.715Z,28.00
2022-08-16T12:41:46.390Z,27.70
2022-08-16T12:44:50.250Z,27.10
2022-08-16T12:48:32.566Z,27.30
2022-08-16T12:51:58.709Z,26.70
2022-08-16T12:55:04.493Z,26.60
2022-08-16T12:58:13.967Z,27.00
2022-08-16T13:01:31.842Z,27.30
2022-08-16T13:04:35.591Z,26.80
2022-08-16T13:07:45.043Z,26.20
2022-08-16T13:10:50.662Z,26.00
2022-08-16T13:13:55.119Z,25.50
2022-08-16T13:16:57.128Z,25.20
2022-08-16T13:20:07.563Z,25.00
2022-08-16T13:23:12.643Z,25.10
2022-08-16T13:26:19.030Z,25.20
2022-08-16T13:29:20.990Z,25.50
2022-08-16T13:32:39.430Z,25.50
2022-08-16T13:35:45.317Z,25.20
2022-08-16T13:38:47.259Z,25.20
2022-08-16T13:41:53.636Z,25.10
2022-08-16T13:44:58.618Z,25.40
2022-08-16T13:48:02.459Z,25.30
2022-08-16T13:51:07.533Z,25.30
2022-08-16T13:54:09.548Z,25.30
2022-08-16T13:57:12.057Z,25.30
2022-08-16T14:00:19.388Z,26.40
2022-08-16T14:03:21.860Z,26.60
2022-08-16T14:06:26.047Z,27.30
2022-08-16T14:09:34.489Z,26.30
2022-08-16T14:12:37.655Z,25.80
2022-08-16T14:15:42.026Z,25.40
2022-08-16T14:18:44.115Z,25.10
2022-08-16T14:21:56.496Z,24.50
2022-08-16T14:25:16.438Z,24.50
2022-08-16T14:28:19.368Z,24.40
2022-08-16T14:31:30.933Z,24.40
2022-08-16T14:34:33.299Z,24.40
2022-08-16T14:37:37.109Z,24.50
2022-08-16T14:40:39.042Z,23.60
2022-08-16T14:43:41.304Z,20.50
2022-08-16T14:46:43.235Z,19.30
2022-08-16T14:49:45.384Z,18.90
2022-08-16T14:53:09.704Z,19.20
2022-08-16T14:56:15.069Z,19.10
2022-08-16T14:59:34.298Z,18.80
2022-08-16T15:02:36.420Z,18.80
2022-08-16T15:05:40.559Z,19.10
2022-08-16T15:08:43.725Z,20.40
2022-08-16T15:11:47.866Z,20.10
2022-08-16T15:14:53.056Z,20.50
2022-08-16T15:17:57.073Z,21.80
2022-08-16T15:21:01.827Z,22.50
2022-08-16T15:24:04.056Z,21.80
2022-08-16T15:27:07.577Z,21.80
2022-08-16T15:30:45.748Z,22.80
2022-08-16T15:33:48.569Z,22.50
2022-08-16T15:36:52.905Z,23.10
2022-08-16T15:39:56.109Z,23.10
2022-08-16T15:42:58.188Z,23.10
2022-08-16T15:46:35.285Z,22.80
2022-08-16T15:49:45.958Z,22.50
2022-08-16T15:52:48.590Z,22.80
2022-08-16T15:55:52.236Z,23.30
2022-08-16T15:58:57.386Z,23.10
2022-08-16T16:01:59.606Z,23.10
2022-08-16T16:05:07.463Z,23.20
2022-08-16T16:08:17.191Z,23.30
2022-08-16T16:11:26.146Z,23.20
2022-08-16T16:14:34.174Z,23.20
2022-08-16T16:17:36.095Z,23.00
2022-08-16T16:20:43.770Z,23.10
2022-08-16T16:23:55.153Z,23.20
2022-08-16T16:26:59.700Z,23.40
2022-08-16T16:30:03.544Z,23.30
2022-08-16T16:33:28.216Z,23.40
2022-08-16T16:36:33.466Z,23.40
2022-08-16T16:39:36.000Z,23.40
2022-08-16T16:42:44.440Z,23.30
2022-08-16T16:45:46.678Z,23.30
2022-08-16T16:48:49.221Z,23.40
2022-08-16T16:51:51.523Z,23.50
2022-08-16T16:54:56.162Z,23.40
2022-08-16T16:58:18.129Z,23.60
2022-08-16T17:01:56.551Z,23.50
2022-08-16T17:05:01.297Z,23.50
2022-08-16T17:08:04.966Z,23.50
2022-08-16T17:11:06.960Z,23.50
2022-08-16T17:14:17.424Z,23.60
2022-08-16T17:17:36.294Z,23.60
2022-08-16T17:20:54.857Z,23.60
2022-08-16T17:23:58.996Z,23.60
2022-08-16T17:30:45.283Z,23.60
2022-08-16T17:33:54.687Z,23.60
2022-08-16T17:36:58.911Z,23.60
2022-08-16T17:39:26.770Z,23.60
2022-08-16T17:40:06.313Z,23.60
2022-08-16T17:43:18.739Z,23.70
2022-08-16T17:46:41.329Z,23.70
2022-08-16T17:49:42.588Z,23.70
2022-08-16T17:52:55.096Z,23.70
2022-08-16T17:55:57.057Z,23.60
2022-08-16T17:58:59.014Z,23.60
2022-08-16T18:02:01.003Z,23.50
2022-08-16T18:05:20.318Z,23.50
2022-08-16T18:08:24.173Z,23.50
2022-08-16T18:11:26.486Z,23.80
2022-08-16T18:14:51.025Z,23.70
2022-08-16T18:17:53.134Z,23.70
2022-08-16T18:21:13.628Z,23.60
2022-08-16T18:24:16.373Z,23.60
2022-08-16T18:27:26.131Z,23.50
2022-08-16T18:30:30.024Z,23.50
2022-08-16T18:33:32.153Z,23.50
2022-08-16T18:36:34.666Z,23.40
2022-08-16T18:39:37.848Z,23.50
2022-08-16T18:42:39.669Z,23.40
2022-08-16T18:45:45.656Z,23.40
2022-08-16T18:48:47.562Z,23.40
2022-08-16T18:51:50.990Z,23.30
2022-08-16T18:55:02.469Z,23.30
2022-08-16T18:58:16.224Z,23.30
2022-08-16T19:01:18.388Z,23.20
2022-08-16T19:04:55.499Z,23.30
2022-08-16T19:07:42.584Z,23.20
2022-08-16T19:10:44.774Z,23.10
2022-08-16T19:13:46.923Z,23.20
2022-08-16T19:16:48.958Z,23.20
2022-08-16T19:19:50.900Z,23.10
2022-08-16T19:23:10.194Z,23.10
2022-08-16T19:26:26.056Z,23.00
2022-08-16T19:29:28.740Z,23.00
2022-08-16T19:32:30.699Z,22.90
2022-08-16T19:35:33.618Z,22.80
2022-08-16T19:38:35.554Z,22.60
2022-08-16T19:41:40.272Z,22.60
2022-08-16T19:44:44.234Z,22.60
2022-08-16T19:47:50.407Z,22.50
2022-08-16T19:50:57.652Z,22.50
2022-08-16T19:54:00.290Z,22.40
2022-08-16T19:57:03.168Z,22.40
2022-08-16T20:00:14.903Z,22.40
2022-08-16T20:03:23.197Z,22.30
2022-08-16T20:06:37.576Z,22.30
2022-08-16T20:09:41.501Z,22.20
2022-08-16T20:12:43.452Z,22.10
2022-08-16T20:16:03.744Z,22.00
2022-08-16T20:19:05.735Z,21.90
2022-08-16T20:22:35.603Z,21.90
2022-08-16T20:25:41.266Z,21.80
2022-08-16T20:28:54.271Z,21.70
2022-08-16T20:31:57.120Z,21.60
2022-08-16T20:34:59.003Z,21.60
2022-08-16T20:38:01.936Z,21.50
2022-08-16T20:41:03.912Z,21.50
2022-08-16T20:44:05.968Z,21.40
2022-08-16T20:47:12.963Z,21.40
2022-08-16T20:50:14.969Z,21.20
2022-08-16T20:53:16.859Z,21.10
2022-08-16T20:56:18.841Z,20.90
2022-08-16T20:59:20.955Z,20.90
2022-08-16T21:02:26.182Z,20.80
2022-08-16T21:05:31.335Z,20.80
2022-08-16T21:08:52.189Z,20.60
2022-08-16T21:11:56.235Z,20.50
2022-08-16T21:14:58.194Z,20.40
2022-08-16T21:18:01.000Z,20.30
2022-08-16T21:21:03.031Z,20.30
2022-08-16T21:24:05.175Z,19.90
2022-08-16T21:27:07.114Z,19.80
2022-08-16T21:30:12.244Z,19.60
2022-08-16T21:33:20.910Z,19.70
2022-08-16T21:36:35.877Z,19.70
2022-08-16T21:39:39.085Z,19.60
2022-08-16T21:42:42.502Z,19.50
2022-08-16T21:45:45.950Z,19.40
2022-08-16T21:48:47.860Z,19.50
2022-08-16T21:51:51.023Z,19.50
2022-08-16T21:54:56.153Z,19.50
2022-08-16T21:57:58.509Z,19.40
2022-08-16T22:01:02.431Z,19.30
2022-08-16T22:04:37.412Z,19.30
2022-08-16T22:07:26.733Z,19.30
2022-08-16T22:11:06.734Z,19.20
2022-08-16T22:13:58.987Z,19.20
2022-08-16T22:17:01.405Z,19.20
2022-08-16T22:20:05.746Z,19.20
2022-08-16T22:23:22.083Z,19.10
2022-08-16T22:26:31.060Z,19.10
2022-08-16T22:29:34.071Z,19.10
2022-08-16T22:32:42.006Z,19.10
2022-08-16T22:35:47.266Z,19.00
2022-08-16T22:38:55.829Z,19.00
2022-08-16T22:42:04.828Z,19.00
2022-08-16T22:45:07.420Z,19.20
2022-08-16T22:48:09.443Z,19.00
2022-08-16T22:51:12.403Z,18.90
2022-08-16T22:54:43.780Z,18.80
2022-08-16T22:57:39.616Z,18.90
2022-08-16T23:00:41.832Z,19.00
2022-08-16T23:03:44.244Z,19.00
2022-08-16T23:06:46.788Z,18.90
2022-08-16T23:09:49.577Z,18.80
2022-08-16T23:13:00.235Z,18.90
2022-08-16T23:16:11.193Z,18.90
2022-08-16T23:19:17.359Z,19.10
2022-08-16T23:22:19.463Z,19.10
2022-08-16T23:25:33.372Z,19.00
2022-08-16T23:28:35.735Z,19.10
2022-08-16T23:31:38.100Z,19.00
2022-08-16T23:34:42.106Z,19.00
2022-08-16T23:37:44.349Z,19.00
2022-08-16T23:40:46.916Z,19.00
2022-08-16T23:43:49.207Z,19.00
2022-08-16T23:46:51.238Z,19.00
2022-08-16T23:50:01.990Z,19.00
2022-08-16T23:53:05.323Z,19.00
2022-08-16T23:56:13.778Z,18.90
2022-08-16T23:59:17.099Z,18.80
